sensor_id;sensor_type;location;lat;lon;timestamp;temperature;humidity
13091;DHT22;6611;52.604;13.438;2024-01-06T00:01:51;1.21;89.59
13091;DHT22;6611;52.604;13.438;2024-01-06T00:06:53;1.19;89.83
13091;DHT22;6611;52.604;13.438;2024-01-06T00:11:56;1.20;89.55
13091;DHT22;6611;52.604;13.438;2024-01-06T00:16:57;1.24;89.49
13091;DHT22;6611;52.604;13.438;2024-01-06T00:21:59;1.14;89.93
13091;DHT22;6611;52.604;13.438;2024-01-06T00:27:03;1.13;89.82
13091;DHT22;6611;52.604;13.438;2024-01-06T00:32:05;1.17;89.54
13091;DHT22;6611;52.604;13.438;2024-01-06T00:37:07;1.08;89.49
13091;DHT22;6611;52.604;13.438;2024-01-06T00:42:10;1.04;89.96
13091;DHT22;6611;52.604;13.438;2024-01-06T00:47:12;1.14;89.36
13091;DHT22;6611;52.604;13.438;2024-01-06T00:52:13;1.10;89.74
13091;DHT22;6611;52.604;13.438;2024-01-06T00:57:16;1.08;89.09
13091;DHT22;6611;52.604;13.438;2024-01-06T01:02:18;1.04;89.86
13091;DHT22;6611;52.604;13.438;2024-01-06T01:07:19;1.14;89.40
13091;DHT22;6611;52.604;13.438;2024-01-06T01:12:23;1.13;89.33
13091;DHT22;6611;52.604;13.438;2024-01-06T01:17:25;1.16;89.31
13091;DHT22;6611;52.604;13.438;2024-01-06T01:22:26;1.08;89.49
13091;DHT22;6611;52.604;13.438;2024-01-06T01:27:29;1.19;89.46
13091;DHT22;6611;52.604;13.438;2024-01-06T01:32:31;1.17;88.99
13091;DHT22;6611;52.604;13.438;2024-01-06T01:37:32;1.10;88.87
13091;DHT22;6611;52.604;13.438;2024-01-06T01:42:35;1.03;89.19
13091;DHT22;6611;52.604;13.438;2024-01-06T01:47:37;1.11;89.47
13091;DHT22;6611;52.604;13.438;2024-01-06T01:52:41;1.13;89.08
13091;DHT22;6611;52.604;13.438;2024-01-06T01:57:44;1.21;88.83
13091;DHT22;6611;52.604;13.438;2024-01-06T02:02:46;1.05;89.22
13091;DHT22;6611;52.604;13.438;2024-01-06T02:07:48;1.07;89.37
13091;DHT22;6611;52.604;13.438;2024-01-06T02:12:52;1.04;89.22
13091;DHT22;6611;52.604;13.438;2024-01-06T02:17:54;0.99;89.57
13091;DHT22;6611;52.604;13.438;2024-01-06T02:22:57;0.95;89.55
13091;DHT22;6611;52.604;13.438;2024-01-06T02:27:59;0.90;89.28
13091;DHT22;6611;52.604;13.438;2024-01-06T02:33:01;1.03;89.37
13091;DHT22;6611;52.604;13.438;2024-01-06T02:38:04;1.01;89.48
13091;DHT22;6611;52.604;13.438;2024-01-06T02:43:06;1.03;89.73
13091;DHT22;6611;52.604;13.438;2024-01-06T02:48:07;1.04;89.58
13091;DHT22;6611;52.604;13.438;2024-01-06T02:53:11;1.11;89.31
13091;DHT22;6611;52.604;13.438;2024-01-06T02:58:13;1.17;89.17
13091;DHT22;6611;52.604;13.438;2024-01-06T03:03:15;1.14;89.16
13091;DHT22;6611;52.604;13.438;2024-01-06T03:08:18;1.16;88.94
13091;DHT22;6611;52.604;13.438;2024-01-06T03:13:19;1.14;89.37
13091;DHT22;6611;52.604;13.438;2024-01-06T03:18:21;1.17;89.00
13091;DHT22;6611;52.604;13.438;2024-01-06T03:23:24;1.14;89.05
13091;DHT22;6611;52.604;13.438;2024-01-06T03:28:26;1.16;89.09
13091;DHT22;6611;52.604;13.438;2024-01-06T03:33:27;1.17;88.97
13091;DHT22;6611;52.604;13.438;2024-01-06T03:38:30;1.13;88.57
13091;DHT22;6611;52.604;13.438;2024-01-06T03:43:32;0.99;89.15
13091;DHT22;6611;52.604;13.438;2024-01-06T03:48:33;1.07;89.35
13091;DHT22;6611;52.604;13.438;2024-01-06T03:53:36;0.97;89.75
13091;DHT22;6611;52.604;13.438;2024-01-06T03:58:38;1.01;89.18
13091;DHT22;6611;52.604;13.438;2024-01-06T04:03:40;0.92;89.97
13091;DHT22;6611;52.604;13.438;2024-01-06T04:08:43;0.95;89.79
13091;DHT22;6611;52.604;13.438;2024-01-06T04:13:44;1.03;89.72
13091;DHT22;6611;52.604;13.438;2024-01-06T04:18:46;1.05;89.28
13091;DHT22;6611;52.604;13.438;2024-01-06T04:23:49;0.97;89.28
13091;DHT22;6611;52.604;13.438;2024-01-06T04:28:51;1.01;89.08
13091;DHT22;6611;52.604;13.438;2024-01-06T04:33:52;0.99;89.46
13091;DHT22;6611;52.604;13.438;2024-01-06T04:38:55;1.00;89.32
13091;DHT22;6611;52.604;13.438;2024-01-06T04:43:57;0.99;89.49
13091;DHT22;6611;52.604;13.438;2024-01-06T04:48:58;0.96;89.50
13091;DHT22;6611;52.604;13.438;2024-01-06T04:54:01;0.96;89.97
13091;DHT22;6611;52.604;13.438;2024-01-06T04:59:03;0.97;89.28
13091;DHT22;6611;52.604;13.438;2024-01-06T05:04:05;0.90;89.86
13091;DHT22;6611;52.604;13.438;2024-01-06T05:09:08;0.89;89.83
13091;DHT22;6611;52.604;13.438;2024-01-06T05:14:09;0.85;89.82
13091;DHT22;6611;52.604;13.438;2024-01-06T05:19:11;0.83;90.24
13091;DHT22;6611;52.604;13.438;2024-01-06T05:24:22;0.83;90.33
13091;DHT22;6611;52.604;13.438;2024-01-06T05:29:24;0.82;90.19
13091;DHT22;6611;52.604;13.438;2024-01-06T05:34:26;0.76;90.11
13091;DHT22;6611;52.604;13.438;2024-01-06T05:39:29;0.69;90.41
13091;DHT22;6611;52.604;13.438;2024-01-06T05:44:31;0.64;90.58
13091;DHT22;6611;52.604;13.438;2024-01-06T05:49:32;0.59;90.77
13091;DHT22;6611;52.604;13.438;2024-01-06T05:54:35;0.59;90.74
13091;DHT22;6611;52.604;13.438;2024-01-06T05:59:37;0.62;90.63
13091;DHT22;6611;52.604;13.438;2024-01-06T06:04:38;0.57;90.71
13091;DHT22;6611;52.604;13.438;2024-01-06T06:09:41;0.61;90.71
13091;DHT22;6611;52.604;13.438;2024-01-06T06:14:43;0.59;90.66
13091;DHT22;6611;52.604;13.438;2024-01-06T06:19:45;0.58;91.00
13091;DHT22;6611;52.604;13.438;2024-01-06T06:24:48;0.57;90.52
13091;DHT22;6611;52.604;13.438;2024-01-06T06:29:49;0.62;90.36
13091;DHT22;6611;52.604;13.438;2024-01-06T06:34:51;0.61;90.15
13091;DHT22;6611;52.604;13.438;2024-01-06T06:39:54;0.62;90.63
13091;DHT22;6611;52.604;13.438;2024-01-06T06:44:56;0.55;90.24
13091;DHT22;6611;52.604;13.438;2024-01-06T06:49:58;0.48;90.55
13091;DHT22;6611;52.604;13.438;2024-01-06T06:55:01;0.52;90.85
13091;DHT22;6611;52.604;13.438;2024-01-06T07:00:03;0.52;90.59
13091;DHT22;6611;52.604;13.438;2024-01-06T07:05:05;0.59;90.41
13091;DHT22;6611;52.604;13.438;2024-01-06T07:10:09;0.61;90.25
13091;DHT22;6611;52.604;13.438;2024-01-06T07:15:11;0.54;90.03
13091;DHT22;6611;52.604;13.438;2024-01-06T07:20:13;0.42;90.33
13091;DHT22;6611;52.604;13.438;2024-01-06T07:25:16;0.37;90.65
13091;DHT22;6611;52.604;13.438;2024-01-06T07:30:17;0.37;90.56
13091;DHT22;6611;52.604;13.438;2024-01-06T07:35:19;0.37;90.74
13091;DHT22;6611;52.604;13.438;2024-01-06T07:40:24;0.36;90.28
13091;DHT22;6611;52.604;13.438;2024-01-06T07:45:26;0.30;90.29
13091;DHT22;6611;52.604;13.438;2024-01-06T07:50:27;0.16;90.64
13091;DHT22;6611;52.604;13.438;2024-01-06T07:55:30;0.13;90.83
13091;DHT22;6611;52.604;13.438;2024-01-06T08:00:32;0.20;90.58
13091;DHT22;6611;52.604;13.438;2024-01-06T08:05:34;0.24;90.79
13091;DHT22;6611;52.604;13.438;2024-01-06T08:10:37;0.33;90.40
13091;DHT22;6611;52.604;13.438;2024-01-06T08:15:39;0.27;90.31
13091;DHT22;6611;52.604;13.438;2024-01-06T08:20:40;0.31;89.85
13091;DHT22;6611;52.604;13.438;2024-01-06T08:25:43;0.23;90.15
13091;DHT22;6611;52.604;13.438;2024-01-06T08:30:46;0.40;90.58
13091;DHT22;6611;52.604;13.438;2024-01-06T08:35:47;0.31;90.00
13091;DHT22;6611;52.604;13.438;2024-01-06T08:40:50;0.23;90.23
13091;DHT22;6611;52.604;13.438;2024-01-06T08:45:53;0.20;90.49
13091;DHT22;6611;52.604;13.438;2024-01-06T08:50:55;0.27;89.82
13091;DHT22;6611;52.604;13.438;2024-01-06T08:55:58;0.16;89.83
13091;DHT22;6611;52.604;13.438;2024-01-06T09:01:00;0.07;90.20
13091;DHT22;6611;52.604;13.438;2024-01-06T09:06:01;0.14;89.84
13091;DHT22;6611;52.604;13.438;2024-01-06T09:11:04;0.20;89.57
13091;DHT22;6611;52.604;13.438;2024-01-06T09:16:06;0.18;89.39
13091;DHT22;6611;52.604;13.438;2024-01-06T09:21:09;0.14;89.72
13091;DHT22;6611;52.604;13.438;2024-01-06T09:26:12;0.11;89.00
13091;DHT22;6611;52.604;13.438;2024-01-06T09:31:14;0.06;89.45
13091;DHT22;6611;52.604;13.438;2024-01-06T09:36:15;0.11;89.19
13091;DHT22;6611;52.604;13.438;2024-01-06T09:41:19;0.25;89.19
13091;DHT22;6611;52.604;13.438;2024-01-06T09:46:24;0.23;88.92
13091;DHT22;6611;52.604;13.438;2024-01-06T09:51:26;0.13;88.39
13091;DHT22;6611;52.604;13.438;2024-01-06T09:56:30;0.14;89.02
13091;DHT22;6611;52.604;13.438;2024-01-06T10:01:32;0.14;88.67
13091;DHT22;6611;52.604;13.438;2024-01-06T10:06:33;0.11;88.73
13091;DHT22;6611;52.604;13.438;2024-01-06T10:11:39;0.21;88.30
13091;DHT22;6611;52.604;13.438;2024-01-06T10:16:41;0.24;88.32
13091;DHT22;6611;52.604;13.438;2024-01-06T10:21:43;0.21;88.44
13091;DHT22;6611;52.604;13.438;2024-01-06T10:26:46;0.11;87.82
13091;DHT22;6611;52.604;13.438;2024-01-06T10:31:48;0.02;88.62
13091;DHT22;6611;52.604;13.438;2024-01-06T10:36:50;0.02;88.47
13091;DHT22;6611;52.604;13.438;2024-01-06T10:41:55;0.07;88.43
13091;DHT22;6611;52.604;13.438;2024-01-06T10:46:57;0.21;88.12
13091;DHT22;6611;52.604;13.438;2024-01-06T10:52:00;0.09;88.08
13091;DHT22;6611;52.604;13.438;2024-01-06T10:57:04;0.03;88.47
13091;DHT22;6611;52.604;13.438;2024-01-06T11:02:08;0.02;88.23
13091;DHT22;6611;52.604;13.438;2024-01-06T11:07:12;0.02;88.77
13091;DHT22;6611;52.604;13.438;2024-01-06T11:12:16;-0.03;88.54
13091;DHT22;6611;52.604;13.438;2024-01-06T11:17:51;0.06;88.50
13091;DHT22;6611;52.604;13.438;2024-01-06T11:23:18;-0.03;88.54
13091;DHT22;6611;52.604;13.438;2024-01-06T11:28:22;0.09;88.21
13091;DHT22;6611;52.604;13.438;2024-01-06T11:33:25;-0.03;87.79
13091;DHT22;6611;52.604;13.438;2024-01-06T11:38:27;-0.05;87.90
13091;DHT22;6611;52.604;13.438;2024-01-06T11:43:34;-0.04;87.83
13091;DHT22;6611;52.604;13.438;2024-01-06T11:48:36;-0.05;88.23
13091;DHT22;6611;52.604;13.438;2024-01-06T11:53:39;-0.04;87.53
13091;DHT22;6611;52.604;13.438;2024-01-06T11:58:45;-0.08;88.03
13091;DHT22;6611;52.604;13.438;2024-01-06T12:03:53;-0.08;87.48
13091;DHT22;6611;52.604;13.438;2024-01-06T12:09:03;0.02;87.81
13091;DHT22;6611;52.604;13.438;2024-01-06T12:14:06;0.05;86.78
13091;DHT22;6611;52.604;13.438;2024-01-06T12:19:08;0.02;86.99
13091;DHT22;6611;52.604;13.438;2024-01-06T12:24:15;0.02;86.71
13091;DHT22;6611;52.604;13.438;2024-01-06T12:29:19;0.06;86.72
13091;DHT22;6611;52.604;13.438;2024-01-06T12:34:21;0.05;86.95
13091;DHT22;6611;52.604;13.438;2024-01-06T12:39:23;0.17;86.72
13091;DHT22;6611;52.604;13.438;2024-01-06T12:44:29;0.17;86.65
13091;DHT22;6611;52.604;13.438;2024-01-06T12:49:33;0.07;86.76
13091;DHT22;6611;52.604;13.438;2024-01-06T12:54:34;0.10;86.90
13091;DHT22;6611;52.604;13.438;2024-01-06T12:59:37;0.00;86.51
13091;DHT22;6611;52.604;13.438;2024-01-06T13:04:39;-0.03;86.86
13091;DHT22;6611;52.604;13.438;2024-01-06T13:09:41;-0.08;86.97
13091;DHT22;6611;52.604;13.438;2024-01-06T13:14:44;-0.03;87.47
13091;DHT22;6611;52.604;13.438;2024-01-06T13:19:47;0.00;87.18
13091;DHT22;6611;52.604;13.438;2024-01-06T13:24:49;0.00;86.31
13091;DHT22;6611;52.604;13.438;2024-01-06T13:29:52;0.03;87.22
13091;DHT22;6611;52.604;13.438;2024-01-06T13:34:54;0.03;86.38
13091;DHT22;6611;52.604;13.438;2024-01-06T13:40:02;-0.01;86.38
13091;DHT22;6611;52.604;13.438;2024-01-06T13:45:06;-0.01;86.75
13091;DHT22;6611;52.604;13.438;2024-01-06T13:50:08;0.06;86.84
13091;DHT22;6611;52.604;13.438;2024-01-06T13:55:11;-0.03;86.45
13091;DHT22;6611;52.604;13.438;2024-01-06T14:00:14;-0.10;86.26
13091;DHT22;6611;52.604;13.438;2024-01-06T14:05:19;-0.07;86.87
13091;DHT22;6611;52.604;13.438;2024-01-06T14:10:20;0.02;86.29
13091;DHT22;6611;52.604;13.438;2024-01-06T14:15:23;0.06;86.10
13091;DHT22;6611;52.604;13.438;2024-01-06T14:20:26;-0.03;85.40
13091;DHT22;6611;52.604;13.438;2024-01-06T14:25:29;0.07;85.71
13091;DHT22;6611;52.604;13.438;2024-01-06T14:30:32;0.16;85.06
13091;DHT22;6611;52.604;13.438;2024-01-06T14:35:33;0.06;85.20
13091;DHT22;6611;52.604;13.438;2024-01-06T14:40:35;0.03;85.59
13091;DHT22;6611;52.604;13.438;2024-01-06T14:45:38;0.03;85.71
13091;DHT22;6611;52.604;13.438;2024-01-06T14:50:40;0.02;85.20
13091;DHT22;6611;52.604;13.438;2024-01-06T14:55:41;-0.07;84.85
13091;DHT22;6611;52.604;13.438;2024-01-06T15:00:44;-0.03;84.86
13091;DHT22;6611;52.604;13.438;2024-01-06T15:05:46;-0.14;85.06
13091;DHT22;6611;52.604;13.438;2024-01-06T15:10:48;-0.17;84.58
13091;DHT22;6611;52.604;13.438;2024-01-06T15:15:51;-0.21;84.86
13091;DHT22;6611;52.604;13.438;2024-01-06T15:20:53;-0.11;84.73
13091;DHT22;6611;52.604;13.438;2024-01-06T15:25:55;-0.21;84.63
13091;DHT22;6611;52.604;13.438;2024-01-06T15:30:58;-0.18;84.41
13091;DHT22;6611;52.604;13.438;2024-01-06T15:36:00;-0.22;84.61
13091;DHT22;6611;52.604;13.438;2024-01-06T15:41:02;-0.12;84.83
13091;DHT22;6611;52.604;13.438;2024-01-06T15:46:05;-0.22;84.27
13091;DHT22;6611;52.604;13.438;2024-01-06T15:51:07;-0.22;84.86
13091;DHT22;6611;52.604;13.438;2024-01-06T15:56:09;-0.21;84.06
13091;DHT22;6611;52.604;13.438;2024-01-06T16:01:12;-0.17;84.63
13091;DHT22;6611;52.604;13.438;2024-01-06T16:06:14;-0.21;83.94
13091;DHT22;6611;52.604;13.438;2024-01-06T16:11:15;-0.32;84.29
13091;DHT22;6611;52.604;13.438;2024-01-06T16:16:18;-0.19;83.89
13091;DHT22;6611;52.604;13.438;2024-01-06T16:21:21;-0.22;83.19
13091;DHT22;6611;52.604;13.438;2024-01-06T16:26:24;-0.29;83.49
13091;DHT22;6611;52.604;13.438;2024-01-06T16:31:27;-0.33;83.13
13091;DHT22;6611;52.604;13.438;2024-01-06T16:36:30;-0.28;83.45
13091;DHT22;6611;52.604;13.438;2024-01-06T16:41:32;-0.26;83.83
13091;DHT22;6611;52.604;13.438;2024-01-06T16:46:35;-0.31;84.15
13091;DHT22;6611;52.604;13.438;2024-01-06T16:51:36;-0.36;84.19
13091;DHT22;6611;52.604;13.438;2024-01-06T16:56:38;-0.36;85.20
13091;DHT22;6611;52.604;13.438;2024-01-06T17:01:42;-0.33;85.22
13091;DHT22;6611;52.604;13.438;2024-01-06T17:06:44;-0.42;86.08
13091;DHT22;6611;52.604;13.438;2024-01-06T17:11:45;-0.50;85.24
13091;DHT22;6611;52.604;13.438;2024-01-06T17:16:48;-0.48;84.05
13091;DHT22;6611;52.604;13.438;2024-01-06T17:21:50;-0.52;82.92
13091;DHT22;6611;52.604;13.438;2024-01-06T17:26:52;-0.59;82.89
13091;DHT22;6611;52.604;13.438;2024-01-06T17:31:55;-0.50;83.73
13091;DHT22;6611;52.604;13.438;2024-01-06T17:36:56;-0.56;83.45
13091;DHT22;6611;52.604;13.438;2024-01-06T17:41:59;-0.63;83.03
13091;DHT22;6611;52.604;13.438;2024-01-06T17:47:02;-0.64;82.53
13091;DHT22;6611;52.604;13.438;2024-01-06T17:52:04;-0.52;83.20
13091;DHT22;6611;52.604;13.438;2024-01-06T17:57:06;-0.55;82.38
13091;DHT22;6611;52.604;13.438;2024-01-06T18:02:09;-0.59;83.69
13091;DHT22;6611;52.604;13.438;2024-01-06T18:07:10;-0.45;83.56
13091;DHT22;6611;52.604;13.438;2024-01-06T18:12:12;-0.39;83.68
13091;DHT22;6611;52.604;13.438;2024-01-06T18:17:15;-0.53;84.33
13091;DHT22;6611;52.604;13.438;2024-01-06T18:22:18;-0.53;84.33
13091;DHT22;6611;52.604;13.438;2024-01-06T18:27:20;-0.48;83.88
13091;DHT22;6611;52.604;13.438;2024-01-06T18:32:23;-0.42;84.23
13091;DHT22;6611;52.604;13.438;2024-01-06T18:37:25;-0.49;82.55
13091;DHT22;6611;52.604;13.438;2024-01-06T18:42:26;-0.46;82.56
13091;DHT22;6611;52.604;13.438;2024-01-06T18:47:29;-0.50;82.35
13091;DHT22;6611;52.604;13.438;2024-01-06T18:52:31;-0.50;83.27
13091;DHT22;6611;52.604;13.438;2024-01-06T18:57:33;-0.56;82.96
13091;DHT22;6611;52.604;13.438;2024-01-06T19:02:36;-0.49;82.90
13091;DHT22;6611;52.604;13.438;2024-01-06T19:07:38;-0.56;82.60
13091;DHT22;6611;52.604;13.438;2024-01-06T19:12:39;-0.49;82.93
13091;DHT22;6611;52.604;13.438;2024-01-06T19:17:43;-0.46;82.66
13091;DHT22;6611;52.604;13.438;2024-01-06T19:22:47;-0.57;81.63
13091;DHT22;6611;52.604;13.438;2024-01-06T19:27:49;-0.60;81.86
13091;DHT22;6611;52.604;13.438;2024-01-06T19:32:52;-0.52;82.62
13091;DHT22;6611;52.604;13.438;2024-01-06T19:37:53;-0.53;81.30
13091;DHT22;6611;52.604;13.438;2024-01-06T19:42:59;-0.49;81.94
13091;DHT22;6611;52.604;13.438;2024-01-06T19:48:03;-0.52;81.28
13091;DHT22;6611;52.604;13.438;2024-01-06T19:53:05;-0.62;81.83
13091;DHT22;6611;52.604;13.438;2024-01-06T19:58:07;-0.67;81.17
13091;DHT22;6611;52.604;13.438;2024-01-06T20:03:10;-0.77;82.55
13091;DHT22;6611;52.604;13.438;2024-01-06T20:08:12;-0.73;83.57
13091;DHT22;6611;52.604;13.438;2024-01-06T20:13:14;-0.79;83.88
13091;DHT22;6611;52.604;13.438;2024-01-06T20:18:18;-0.63;83.63
13091;DHT22;6611;52.604;13.438;2024-01-06T20:23:19;-0.70;83.72
13091;DHT22;6611;52.604;13.438;2024-01-06T20:28:21;-0.73;82.90
13091;DHT22;6611;52.604;13.438;2024-01-06T20:33:24;-0.88;80.70
13091;DHT22;6611;52.604;13.438;2024-01-06T20:38:26;-0.80;81.59
13091;DHT22;6611;52.604;13.438;2024-01-06T20:43:28;-0.74;81.44
13091;DHT22;6611;52.604;13.438;2024-01-06T20:48:31;-0.76;79.92
13091;DHT22;6611;52.604;13.438;2024-01-06T20:53:32;-0.77;78.73
13091;DHT22;6611;52.604;13.438;2024-01-06T20:58:36;-0.73;79.37
13091;DHT22;6611;52.604;13.438;2024-01-06T21:03:39;-0.74;78.76
13091;DHT22;6611;52.604;13.438;2024-01-06T21:08:41;-0.79;77.93
13091;DHT22;6611;52.604;13.438;2024-01-06T21:13:43;-0.84;77.22
13091;DHT22;6611;52.604;13.438;2024-01-06T21:18:46;-0.77;77.48
13091;DHT22;6611;52.604;13.438;2024-01-06T21:23:49;-0.91;77.15
13091;DHT22;6611;52.604;13.438;2024-01-06T21:28:50;-0.77;78.26
13091;DHT22;6611;52.604;13.438;2024-01-06T21:33:53;-0.83;77.32
13091;DHT22;6611;52.604;13.438;2024-01-06T21:38:55;-0.84;77.22
13091;DHT22;6611;52.604;13.438;2024-01-06T21:43:57;-0.81;76.62
13091;DHT22;6611;52.604;13.438;2024-01-06T21:49:00;-0.84;76.97
13091;DHT22;6611;52.604;13.438;2024-01-06T21:54:02;-0.79;77.34
13091;DHT22;6611;52.604;13.438;2024-01-06T21:59:05;-0.80;76.74
13091;DHT22;6611;52.604;13.438;2024-01-06T22:04:09;-0.84;76.59
13091;DHT22;6611;52.604;13.438;2024-01-06T22:09:11;-0.77;76.48
13091;DHT22;6611;52.604;13.438;2024-01-06T22:14:13;-0.87;76.09
13091;DHT22;6611;52.604;13.438;2024-01-06T22:19:16;-0.92;75.93
13091;DHT22;6611;52.604;13.438;2024-01-06T22:24:18;-0.91;75.64
13091;DHT22;6611;52.604;13.438;2024-01-06T22:29:20;-0.98;76.27
13091;DHT22;6611;52.604;13.438;2024-01-06T22:34:23;-0.97;75.00
13091;DHT22;6611;52.604;13.438;2024-01-06T22:39:24;-0.95;75.99
13091;DHT22;6611;52.604;13.438;2024-01-06T22:44:26;-0.97;75.67
13091;DHT22;6611;52.604;13.438;2024-01-06T22:49:29;-0.88;76.26
13091;DHT22;6611;52.604;13.438;2024-01-06T22:54:31;-0.90;75.48
13091;DHT22;6611;52.604;13.438;2024-01-06T22:59:33;-0.95;76.01
13091;DHT22;6611;52.604;13.438;2024-01-06T23:04:36;-0.95;77.26
13091;DHT22;6611;52.604;13.438;2024-01-06T23:09:38;-0.90;76.08
13091;DHT22;6611;52.604;13.438;2024-01-06T23:14:40;-0.98;75.54
13091;DHT22;6611;52.604;13.438;2024-01-06T23:19:43;-0.92;76.10
13091;DHT22;6611;52.604;13.438;2024-01-06T23:24:45;-0.94;75.26
13091;DHT22;6611;52.604;13.438;2024-01-06T23:29:46;-0.95;76.96
13091;DHT22;6611;52.604;13.438;2024-01-06T23:34:49;-0.90;76.97
13091;DHT22;6611;52.604;13.438;2024-01-06T23:39:51;-0.95;76.47
13091;DHT22;6611;52.604;13.438;2024-01-06T23:44:54;-0.95;76.25
13091;DHT22;6611;52.604;13.438;2024-01-06T23:49:57;-1.00;76.98
13091;DHT22;6611;52.604;13.438;2024-01-06T23:54:58;-1.04;76.06
